Time;durP1;ratioP1;P1;durP2;ratioP2;P2;SDS_P1;SDS_P2;PMS_P1;PMS_P2;Temp;Humidity;BMP_temperature;BMP_pressure;BME280_temperature;BME280_humidity;BME280_pressure;Samples;Min_cycle;Max_cycle;Signal;HPM_P1;HPM_P2
2022/04/15 00:01:22;;;;;;;;;17.33;17.00;;;;;21.58;40.12;101052.62;110765;1258;18744;-54
2022/04/15 00:03:50;;;;;;;;;20.00;17.67;;;;;21.58;40.15;101055.52;110794;1258;19740;-53
2022/04/15 00:06:18;;;;;;;;;18.00;17.00;;;;;21.60;40.23;101055.66;110784;1257;19699;-56
2022/04/15 00:08:45;;;;;;;;;18.00;17.00;;;;;21.59;40.03;101053.05;110803;1258;23140;-55
2022/04/15 00:11:12;;;;;;;;;18.00;17.00;;;;;21.59;40.18;101051.36;110737;1259;18844;-56
2022/04/15 00:13:41;;;;;;;;;20.33;17.67;;;;;21.60;40.20;101046.90;110735;1258;21621;-54
2022/04/15 00:16:08;;;;;;;;;16.67;16.00;;;;;21.59;40.16;101047.79;110519;1259;18845;-55
2022/04/15 00:18:36;;;;;;;;;20.33;17.33;;;;;21.59;40.14;101048.50;110610;1258;18813;-54
2022/04/15 00:21:04;;;;;;;;;20.00;18.00;;;;;21.59;40.26;101049.90;110737;1258;19629;-53
2022/04/15 00:23:31;;;;;;;;;18.00;17.33;;;;;21.58;40.11;101051.85;110735;1258;18768;-56
2022/04/15 00:25:59;;;;;;;;;18.33;17.67;;;;;21.59;40.11;101055.77;110765;1258;19414;-55
2022/04/15 00:28:26;;;;;;;;;17.33;17.00;;;;;21.60;40.28;101054.27;110684;1258;19723;-52
2022/04/15 00:30:54;;;;;;;;;20.00;18.00;;;;;21.61;40.22;101057.56;110617;1258;19053;-55
2022/04/15 00:33:22;;;;;;;;;18.00;17.33;;;;;21.59;40.22;101058.11;110685;1258;19096;-57
2022/04/15 00:35:50;;;;;;;;;18.00;17.00;;;;;21.58;40.10;101061.50;110570;1258;19629;-59
2022/04/15 00:38:17;;;;;;;;;17.00;17.00;;;;;21.58;40.16;101066.27;110569;1258;18738;-53
2022/04/15 00:40:44;;;;;;;;;21.67;17.67;;;;;21.60;40.17;101072.23;110710;1258;18849;-55
2022/04/15 00:43:12;;;;;;;;;18.33;16.67;;;;;21.60;40.39;101074.27;110759;1259;19512;-54
2022/04/15 00:45:39;;;;;;;;;18.00;17.00;;;;;21.58;40.04;101070.42;110815;1258;18728;-56
2022/04/15 00:48:09;;;;;;;;;18.00;16.00;;;;;21.57;40.29;101067.95;110721;1258;27162;-53
2022/04/15 00:50:36;;;;;;;;;20.00;17.00;;;;;21.58;40.19;101065.95;110720;1258;19526;-53
2022/04/15 00:53:06;;;;;;;;;20.00;17.33;;;;;21.57;40.30;101061.33;110724;1258;21133;-55
2022/04/15 00:55:33;;;;;;;;;20.33;18.00;;;;;21.57;40.35;101062.04;110757;1258;22864;-55
2022/04/15 00:58:01;;;;;;;;;22.00;19.33;;;;;21.57;40.15;101066.20;110664;1258;19542;-54
2022/04/15 01:00:28;;;;;;;;;19.33;16.00;;;;;21.57;40.13;101061.50;110765;1258;18783;-57
2022/04/15 01:02:55;;;;;;;;;17.67;16.00;;;;;21.56;40.25;101061.77;110702;1258;22446;-55
2022/04/15 01:05:23;;;;;;;;;18.00;18.00;;;;;21.56;40.20;101059.34;110592;1258;19501;-58
2022/04/15 01:07:50;;;;;;;;;20.00;18.00;;;;;21.56;40.37;101061.36;110694;1258;22196;-53
2022/04/15 01:10:17;;;;;;;;;18.67;16.00;;;;;21.57;40.37;101056.58;110455;1259;18839;-55
2022/04/15 01:12:45;;;;;;;;;18.67;17.33;;;;;21.57;40.27;101053.52;110670;1258;21487;-59
2022/04/15 01:15:12;;;;;;;;;18.67;16.33;;;;;21.56;40.30;101049.98;110694;1258;22807;-56
2022/04/15 01:17:40;;;;;;;;;21.00;18.00;;;;;21.55;40.45;101049.13;110673;1258;18908;-57
2022/04/15 01:20:08;;;;;;;;;13.00;13.00;;;;;21.56;40.42;101050.45;110677;1258;19668;-52
2022/04/15 01:22:35;;;;;;;;;15.67;15.00;;;;;21.56;40.43;101043.05;110782;1258;18758;-53
2022/04/15 01:25:04;;;;;;;;;19.67;17.33;;;;;21.57;40.45;101049.63;110758;1258;18783;-56
2022/04/15 01:27:31;;;;;;;;;18.00;17.33;;;;;21.57;40.37;101052.87;110752;1258;22259;-56
2022/04/15 01:29:58;;;;;;;;;19.33;17.00;;;;;21.59;40.24;101054.33;110683;1259;18787;-56
2022/04/15 01:32:25;;;;;;;;;17.00;15.33;;;;;21.58;40.38;101051.88;110717;1258;18775;-53
2022/04/15 01:34:53;;;;;;;;;20.33;19.33;;;;;21.58;40.48;101042.29;110751;1258;19603;-57
2022/04/15 01:37:20;;;;;;;;;19.33;17.00;;;;;21.58;40.58;101038.20;110703;1258;18963;-56
2022/04/15 01:39:47;;;;;;;;;18.00;18.00;;;;;21.59;40.47;101040.21;110815;1258;18732;-54
2022/04/15 01:42:15;;;;;;;;;16.00;14.00;;;;;21.59;40.52;101038.00;110764;1258;19564;-55
2022/04/15 01:44:42;;;;;;;;;15.00;14.00;;;;;21.60;40.31;101038.27;110690;1258;18734;-53
2022/04/15 01:47:09;;;;;;;;;17.00;16.00;;;;;21.59;40.58;101046.36;110700;1258;22995;-55
2022/04/15 01:49:37;;;;;;;;;18.00;16.00;;;;;21.57;40.51;101044.68;110747;1258;19568;-55
2022/04/15 01:52:04;;;;;;;;;18.67;17.00;;;;;21.60;40.62;101048.23;110728;1258;19024;-57
2022/04/15 01:54:31;;;;;;;;;16.00;14.00;;;;;21.58;40.66;101051.85;110745;1258;22544;-55
2022/04/15 01:56:59;;;;;;;;;14.67;14.00;;;;;21.58;40.57;101054.95;110729;1258;19603;-53
2022/04/15 01:59:26;;;;;;;;;18.67;17.00;;;;;21.60;40.82;101055.15;110742;1258;22336;-54
2022/04/15 02:01:54;;;;;;;;;13.50;12.50;;;;;21.59;40.62;101053.45;110703;1258;19645;-52
2022/04/15 02:04:22;;;;;;;;;17.00;15.33;;;;;21.59;40.55;101055.26;110748;1258;19470;-54
2022/04/15 02:06:49;;;;;;;;;16.00;15.33;;;;;21.59;40.77;101050.00;110803;1258;18721;-56
2022/04/15 02:09:17;;;;;;;;;17.67;16.67;;;;;21.58;40.73;101048.30;110742;1258;18900;-57
2022/04/15 02:11:44;;;;;;;;;14.67;14.00;;;;;21.59;40.56;101040.87;110758;1258;19703;-55
2022/04/15 02:14:12;;;;;;;;;19.33;17.33;;;;;21.58;40.78;101032.05;110777;1258;18766;-55
2022/04/15 02:16:40;;;;;;;;;20.00;17.50;;;;;21.58;40.66;101031.69;110722;1258;18912;-54
2022/04/15 02:19:07;;;;;;;;;16.00;14.00;;;;;21.58;40.58;101028.97;110725;1258;19806;-56
2022/04/15 02:21:34;;;;;;;;;14.00;13.33;;;;;21.59;40.75;101029.65;110749;1257;22765;-56
2022/04/15 02:24:02;;;;;;;;;18.00;17.33;;;;;21.58;40.74;101032.95;110732;1258;18874;-54
2022/04/15 02:26:29;;;;;;;;;18.00;16.33;;;;;21.59;40.86;101035.20;110702;1258;23590;-54
2022/04/15 02:28:56;;;;;;;;;16.67;14.00;;;;;21.58;40.91;101035.48;110767;1258;18855;-55
2022/04/15 02:31:24;;;;;;;;;15.33;14.67;;;;;21.58;40.80;101034.59;110724;1258;20971;-52
2022/04/15 02:33:51;;;;;;;;;18.00;14.00;;;;;21.58;40.75;101038.98;110749;1258;19699;-54
2022/04/15 02:36:19;;;;;;;;;19.00;17.00;;;;;21.59;40.81;101039.65;110831;1258;19086;-55
2022/04/15 02:38:46;;;;;;;;;14.00;14.00;;;;;21.59;40.69;101032.02;110797;1258;22258;-57
2022/04/15 02:41:13;;;;;;;;;13.00;13.00;;;;;21.59;40.89;101029.63;110763;1258;19547;-54
2022/04/15 02:43:41;;;;;;;;;14.00;13.67;;;;;21.58;40.95;101026.38;110794;1258;18900;-53
2022/04/15 02:46:08;;;;;;;;;14.50;13.50;;;;;21.58;40.88;101028.45;110768;1258;19154;-52
2022/04/15 02:48:35;;;;;;;;;11.00;11.00;;;;;21.58;40.86;101035.85;110811;1258;21369;-55
2022/04/15 02:51:03;;;;;;;;;14.67;13.33;;;;;21.58;40.96;101041.18;110766;1258;20143;-56
2022/04/15 02:53:30;;;;;;;;;16.00;16.00;;;;;21.58;40.89;101039.34;110772;1258;22235;-54
2022/04/15 02:55:58;;;;;;;;;15.33;14.00;;;;;21.58;40.85;101042.60;110807;1258;19545;-53
2022/04/15 02:58:25;;;;;;;;;16.00;14.00;;;;;21.58;40.87;101037.21;110719;1258;21074;-54
2022/04/15 03:00:52;;;;;;;;;14.00;13.00;;;;;21.56;40.95;101033.33;110704;1257;19283;-58
2022/04/15 03:03:20;;;;;;;;;17.33;16.00;;;;;21.58;41.01;101032.81;110713;1258;19515;-57
2022/04/15 03:05:47;;;;;;;;;13.67;12.00;;;;;21.58;41.16;101033.84;110731;1258;18795;-56
2022/04/15 03:08:14;;;;;;;;;15.33;13.67;;;;;21.57;40.94;101027.80;110781;1258;18884;-56
2022/04/15 03:10:42;;;;;;;;;16.00;13.50;;;;;21.57;40.86;101026.58;110738;1258;19575;-55
2022/04/15 03:13:10;;;;;;;;;14.00;13.67;;;;;21.58;40.83;101025.35;110529;1258;19063;-56
2022/04/15 03:15:38;;;;;;;;;13.00;12.00;;;;;21.58;41.01;101022.70;110724;1258;18844;-55
2022/04/15 03:18:05;;;;;;;;;17.00;14.00;;;;;21.57;40.97;101024.70;110754;1258;19571;-54
2022/04/15 03:20:32;;;;;;;;;13.00;13.00;;;;;21.57;41.19;101023.67;110757;1258;18703;-53
2022/04/15 03:23:00;;;;;;;;;14.00;13.00;;;;;21.57;40.90;101018.05;110708;1258;18841;-55
2022/04/15 03:25:27;;;;;;;;;16.00;16.00;;;;;21.56;40.96;101017.20;110733;1258;20974;-52
2022/04/15 03:27:54;;;;;;;;;16.33;14.67;;;;;21.55;40.92;101015.84;110677;1258;18775;-56
2022/04/15 03:30:22;;;;;;;;;18.00;14.67;;;;;21.55;41.06;101014.96;110819;1258;19157;-54
2022/04/15 03:32:49;;;;;;;;;14.00;13.00;;;;;21.57;41.22;101014.16;110771;1257;22078;-54
2022/04/15 03:35:17;;;;;;;;;16.67;16.00;;;;;21.57;41.15;101014.95;110764;1258;18753;-60
2022/04/15 03:37:45;;;;;;;;;14.00;14.00;;;;;21.56;41.04;101015.60;110760;1258;18755;-54
2022/04/15 03:40:12;;;;;;;;;12.00;12.00;;;;;21.57;41.12;101016.92;110558;1259;19367;-49
2022/04/15 03:42:39;;;;;;;;;14.00;13.33;;;;;21.57;40.96;101017.85;110770;1258;22291;-58
2022/04/15 03:45:07;;;;;;;;;14.67;13.00;;;;;21.57;41.09;101017.33;110731;1258;20810;-55
2022/04/15 03:47:34;;;;;;;;;16.00;14.00;;;;;21.58;41.18;101018.45;110774;1258;22204;-54
2022/04/15 03:50:01;;;;;;;;;13.50;11.00;;;;;21.56;41.05;101019.35;110741;1258;18731;-55
2022/04/15 03:52:29;;;;;;;;;16.67;16.00;;;;;21.56;41.13;101020.10;110768;1258;18804;-55
2022/04/15 03:54:56;;;;;;;;;10.00;10.00;;;;;21.56;41.22;101018.70;110799;1258;22751;-58
2022/04/15 03:57:24;;;;;;;;;10.00;10.00;;;;;21.54;41.25;101019.98;110791;1258;18709;-55
2022/04/15 03:59:51;;;;;;;;;12.33;12.00;;;;;21.53;41.29;101018.08;110768;1257;18864;-55
2022/04/15 04:02:18;;;;;;;;;12.00;10.00;;;;;21.53;41.35;101020.64;110761;1258;19561;-55
2022/04/15 04:04:46;;;;;;;;;17.00;11.33;;;;;21.54;41.12;101021.48;110790;1258;18762;-58
2022/04/15 04:07:15;;;;;;;;;13.00;12.50;;;;;21.53;41.36;101024.66;110801;1258;18733;-55
2022/04/15 04:09:42;;;;;;;;;12.33;12.00;;;;;21.54;41.11;101029.67;110790;1258;22686;-55
2022/04/15 04:12:10;;;;;;;;;13.00;13.00;;;;;21.53;41.34;101024.86;110713;1258;18723;-57
2022/04/15 04:14:37;;;;;;;;;14.00;12.00;;;;;21.53;41.31;101028.14;110711;1258;22705;-55
2022/04/15 04:17:04;;;;;;;;;13.50;13.00;;;;;21.53;41.27;101031.55;110718;1258;19551;-56
2022/04/15 04:19:31;;;;;;;;;13.67;13.67;;;;;21.53;41.10;101028.98;110801;1257;22946;-55
2022/04/15 04:21:59;;;;;;;;;12.50;12.00;;;;;21.54;41.33;101036.76;110762;1258;18786;-57
2022/04/15 04:24:26;;;;;;;;;12.00;12.00;;;;;21.54;41.23;101035.09;110822;1258;24619;-56
2022/04/15 04:26:53;;;;;;;;;14.00;13.00;;;;;21.53;41.19;101035.77;110733;1258;18815;-56
2022/04/15 04:29:21;;;;;;;;;16.00;13.67;;;;;21.53;41.45;101038.50;110723;1258;18794;-54
2022/04/15 04:31:48;;;;;;;;;15.33;12.67;;;;;21.54;41.36;101042.77;110716;1258;19629;-53
2022/04/15 04:34:15;;;;;;;;;12.67;12.33;;;;;21.54;41.51;101048.38;110723;1258;23095;-55
2022/04/15 04:36:43;;;;;;;;;13.67;13.00;;;;;21.53;41.41;101046.14;110723;1258;18855;-55
2022/04/15 04:39:10;;;;;;;;;13.00;12.00;;;;;21.54;41.48;101048.59;110745;1258;19648;-54
2022/04/15 04:41:37;;;;;;;;;14.00;13.00;;;;;21.53;41.45;101045.52;110765;1258;18803;-53
2022/04/15 04:44:05;;;;;;;;;13.00;13.00;;;;;21.53;41.40;101046.45;110734;1258;18817;-55
2022/04/15 04:46:32;;;;;;;;;14.67;13.00;;;;;21.52;41.47;101047.25;110729;1258;22058;-54
2022/04/15 04:48:59;;;;;;;;;13.00;13.00;;;;;21.53;41.64;101047.38;110785;1258;18750;-55
2022/04/15 04:51:26;;;;;;;;;16.00;13.00;;;;;21.53;41.56;101049.08;110432;1261;22170;-55
2022/04/15 04:53:54;;;;;;;;;11.00;10.00;;;;;21.52;41.42;101046.41;110756;1258;19368;-55
2022/04/15 04:56:21;;;;;;;;;13.67;12.67;;;;;21.53;41.40;101045.93;110662;1258;21391;-56
2022/04/15 04:58:48;;;;;;;;;10.00;10.00;;;;;21.53;41.47;101042.86;110731;1258;18838;-55
2022/04/15 05:01:16;;;;;;;;;14.00;13.00;;;;;21.52;41.46;101047.81;110741;1258;23341;-53
2022/04/15 05:03:43;;;;;;;;;12.33;12.00;;;;;21.52;41.63;101045.70;110617;1258;18827;-54
2022/04/15 05:06:10;;;;;;;;;12.67;12.67;;;;;21.52;41.45;101046.75;110752;1258;18880;-53
2022/04/15 05:08:38;;;;;;;;;12.50;10.00;;;;;21.52;41.62;101049.64;110719;1258;19557;-56
2022/04/15 05:11:05;;;;;;;;;17.00;13.00;;;;;21.52;41.45;101050.57;110762;1258;18876;-53
2022/04/15 05:13:32;;;;;;;;;13.33;12.00;;;;;21.53;41.49;101053.95;110719;1258;19171;-55
2022/04/15 05:16:00;;;;;;;;;14.00;13.00;;;;;21.54;41.57;101052.21;110811;1258;19470;-56
2022/04/15 05:18:27;;;;;;;;;10.00;10.00;;;;;21.54;41.30;101054.01;110742;1258;22714;-56
2022/04/15 05:20:54;;;;;;;;;12.50;12.00;;;;;21.55;41.49;101059.93;110712;1258;19307;-55
2022/04/15 05:23:21;;;;;;;;;10.67;10.00;;;;;21.55;41.44;101064.56;110630;1258;20915;-56
2022/04/15 05:25:49;;;;;;;;;9.00;9.00;;;;;21.54;41.49;101062.86;110692;1258;18722;-56
2022/04/15 05:28:16;;;;;;;;;9.00;9.00;;;;;21.55;41.54;101068.29;110641;1258;23547;-57
2022/04/15 05:30:43;;;;;;;;;10.00;9.00;;;;;21.54;41.60;101070.34;110631;1258;19597;-55
2022/04/15 05:33:11;;;;;;;;;12.00;10.00;;;;;21.54;41.41;101068.73;110617;1258;20225;-53
2022/04/15 05:35:38;;;;;;;;;13.00;12.00;;;;;21.53;41.55;101071.64;110574;1259;19503;-55
2022/04/15 05:38:07;;;;;;;;;10.67;9.67;;;;;21.54;41.47;101077.05;110471;1261;19703;-57
2022/04/15 05:40:34;;;;;;;;;13.33;12.00;;;;;21.55;41.42;101078.11;110500;1259;22226;-54
2022/04/15 05:43:02;;;;;;;;;10.00;9.67;;;;;21.54;41.59;101083.05;110490;1259;18770;-56
2022/04/15 05:45:29;;;;;;;;;14.00;13.00;;;;;21.54;41.64;101082.04;110485;1259;19566;-53
2022/04/15 05:47:57;;;;;;;;;10.00;10.00;;;;;21.54;41.63;101087.11;110466;1259;18907;-53
2022/04/15 05:50:25;;;;;;;;;9.67;9.67;;;;;21.53;41.62;101088.48;110412;1261;22334;-52
2022/04/15 05:52:52;;;;;;;;;15.33;13.00;;;;;21.54;41.60;101090.77;110704;1258;19590;-53
2022/04/15 05:55:19;;;;;;;;;10.67;9.33;;;;;21.58;41.97;101089.48;110486;1259;18522;-52
2022/04/15 05:57:47;;;;;;;;;10.00;10.00;;;;;21.63;42.07;101091.35;110714;1258;18999;-52
2022/04/15 06:00:14;;;;;;;;;12.00;10.00;;;;;21.68;42.18;101094.45;110608;1259;19530;-55
2022/04/15 06:02:41;;;;;;;;;10.00;10.00;;;;;21.70;41.97;101096.07;110590;1259;22172;-52
2022/04/15 06:05:09;;;;;;;;;10.00;9.00;;;;;21.72;42.19;101097.23;110699;1258;18879;-52
2022/04/15 06:07:36;;;;;;;;;12.00;12.00;;;;;21.74;42.22;101103.56;110689;1258;19622;-52
2022/04/15 06:10:03;;;;;;;;;12.67;12.67;;;;;21.72;42.36;101100.38;110473;1259;18905;-56
2022/04/15 06:12:54;;;;;;;;;10.00;9.67;;;;;21.72;42.74;101099.27;110591;1258;18954;-54
2022/04/15 06:15:18;;;;;;;;;10.00;10.00;;;;;21.78;42.87;101097.65;110704;1258;22008;-54
2022/04/15 06:17:46;;;;;;;;;11.33;10.00;;;;;21.79;42.97;101099.90;110304;1258;264493;-51
2022/04/15 06:20:13;;;;;;;;;15.33;11.00;;;;;21.79;43.09;101103.38;110591;1258;21072;-56
2022/04/15 06:22:40;;;;;;;;;11.67;10.33;;;;;21.76;43.05;101101.27;110447;1259;22031;-55
2022/04/15 06:25:08;;;;;;;;;10.00;10.00;;;;;21.72;43.38;101103.41;110416;1259;19279;-57
2022/04/15 06:27:35;;;;;;;;;12.33;11.33;;;;;21.70;43.42;101105.73;110315;1261;18829;-55
2022/04/15 06:30:03;;;;;;;;;12.00;10.00;;;;;21.77;43.28;101111.36;110402;1259;19579;-56
2022/04/15 06:32:30;;;;;;;;;9.00;9.00;;;;;21.83;43.67;101106.85;110633;1258;18731;-55
2022/04/15 06:34:57;;;;;;;;;13.00;12.00;;;;;21.82;44.10;101109.40;110642;1258;18698;-57
2022/04/15 06:37:25;;;;;;;;;12.00;11.00;;;;;21.80;44.02;101109.27;110677;1258;22960;-53
2022/04/15 06:39:52;;;;;;;;;10.00;10.00;;;;;21.81;44.36;101113.88;110719;1258;18827;-56
2022/04/15 06:42:19;;;;;;;;;13.33;13.00;;;;;21.79;44.45;101115.02;110599;1258;22511;-57
2022/04/15 06:44:47;;;;;;;;;13.00;11.00;;;;;21.78;44.51;101118.90;110494;1259;27560;-59
2022/04/15 06:47:14;;;;;;;;;13.67;13.33;;;;;21.77;44.85;101119.80;110757;1258;19006;-56
2022/04/15 06:49:41;;;;;;;;;10.00;10.00;;;;;21.77;44.76;101118.70;110748;1258;18822;-56
2022/04/15 06:52:09;;;;;;;;;10.00;9.33;;;;;21.78;44.85;101115.54;110807;1258;21171;-57
2022/04/15 06:54:36;;;;;;;;;10.00;10.00;;;;;21.77;44.85;101111.77;110821;1258;22166;-57
2022/04/15 06:57:03;;;;;;;;;14.50;10.00;;;;;21.78;44.97;101118.60;110701;1258;19200;-57
2022/04/15 06:59:31;;;;;;;;;10.67;10.00;;;;;21.81;44.93;101114.01;110752;1258;20150;-57
2022/04/15 07:01:59;;;;;;;;;10.00;10.00;;;;;21.81;44.85;101111.31;110681;1258;23892;-57
2022/04/15 07:04:27;;;;;;;;;10.67;9.67;;;;;21.79;44.99;101111.11;110707;1258;18787;-57
2022/04/15 07:06:55;;;;;;;;;10.00;9.67;;;;;21.78;45.18;101109.11;110667;1258;19546;-56
2022/04/15 07:09:22;;;;;;;;;10.67;9.67;;;;;21.76;45.06;101111.70;110705;1258;20676;-57
2022/04/15 07:11:49;;;;;;;;;10.67;10.00;;;;;21.73;45.12;101114.08;110792;1259;19423;-55
2022/04/15 07:14:17;;;;;;;;;14.67;14.67;;;;;21.68;45.10;101112.04;110701;1259;19567;-57
2022/04/15 07:16:44;;;;;;;;;16.67;15.00;;;;;21.61;44.92;101116.72;110704;1258;21209;-54
2022/04/15 07:19:11;;;;;;;;;17.00;14.67;;;;;21.50;45.32;101112.48;110684;1258;22613;-56
2022/04/15 07:21:39;;;;;;;;;23.33;18.00;;;;;21.45;45.36;101115.38;110766;1258;19955;-55
2022/04/15 07:24:07;;;;;;;;;15.67;12.33;;;;;21.42;45.43;101116.48;110699;1258;19380;-54
2022/04/15 07:26:34;;;;;;;;;20.00;16.50;;;;;21.36;45.30;101116.25;110669;1258;18823;-53
2022/04/15 07:29:01;;;;;;;;;20.33;18.67;;;;;21.24;45.29;101123.42;110467;1260;22999;-55
2022/04/15 07:31:29;;;;;;;;;23.00;20.00;;;;;21.02;45.69;101121.22;110692;1258;18792;-55
2022/04/15 07:33:56;;;;;;;;;20.00;18.00;;;;;20.88;45.68;101122.03;110740;1258;18858;-58
2022/04/15 07:36:43;;;;;;;;;20.00;17.50;;;;;20.77;45.79;101123.27;110581;1258;22213;-54
2022/04/15 07:39:10;;;;;;;;;21.00;21.00;;;;;20.74;45.99;101120.91;110460;1259;20482;-56
2022/04/15 07:41:37;;;;;;;;;17.67;15.67;;;;;20.84;45.86;101124.04;110619;1258;18827;-54
2022/04/15 07:44:05;;;;;;;;;16.00;16.00;;;;;20.95;46.09;101125.86;110651;1258;19782;-57
2022/04/15 07:46:32;;;;;;;;;17.00;16.00;;;;;20.97;45.61;101128.30;110688;1258;18737;-55
2022/04/15 07:48:59;;;;;;;;;16.00;14.00;;;;;21.00;45.43;101122.59;110676;1259;22265;-56
2022/04/15 07:51:27;;;;;;;;;17.33;16.00;;;;;21.03;45.30;101130.56;110677;1258;19765;-56
2022/04/15 07:53:54;;;;;;;;;19.33;15.33;;;;;21.05;45.30;101125.25;110416;1259;18871;-56
2022/04/15 07:56:21;;;;;;;;;15.33;14.33;;;;;21.05;45.27;101126.32;110629;1258;19013;-58
2022/04/15 07:58:50;;;;;;;;;19.50;16.00;;;;;21.05;45.30;101129.81;110675;1258;19533;-58
2022/04/15 08:01:17;;;;;;;;;13.33;12.33;;;;;21.08;45.32;101133.54;110643;1258;22207;-56
2022/04/15 08:03:45;;;;;;;;;16.33;15.33;;;;;21.14;45.29;101133.80;110601;1258;18806;-58
2022/04/15 08:06:12;;;;;;;;;18.00;16.67;;;;;21.18;45.21;101132.78;110696;1258;19558;-54
2022/04/15 08:08:39;;;;;;;;;17.00;14.67;;;;;21.16;44.97;101132.82;110667;1258;19261;-56
2022/04/15 08:11:07;;;;;;;;;16.00;14.00;;;;;21.14;45.38;101132.52;110691;1257;18878;-57
2022/04/15 08:13:34;;;;;;;;;17.00;16.00;;;;;21.14;45.29;101132.34;110618;1258;19520;-57
2022/04/15 08:16:03;;;;;;;;;14.67;13.33;;;;;21.12;45.40;101131.64;110678;1258;19005;-54
2022/04/15 08:18:31;;;;;;;;;15.50;14.00;;;;;21.12;45.53;101135.83;110483;1259;22240;-57
2022/04/15 08:20:58;;;;;;;;;15.00;13.50;;;;;21.19;45.32;101134.69;110675;1259;19867;-57
2022/04/15 08:23:26;;;;;;;;;16.33;14.00;;;;;21.25;45.29;101139.05;110668;1258;18825;-57
2022/04/15 08:25:53;;;;;;;;;15.00;14.00;;;;;21.29;45.31;101139.52;110700;1258;22483;-57
2022/04/15 08:28:21;;;;;;;;;14.00;12.33;;;;;21.32;46.87;101141.56;110527;1258;19474;-56
2022/04/15 08:30:48;;;;;;;;;17.00;17.00;;;;;21.32;46.68;101143.89;110692;1258;18899;-56
2022/04/15 08:33:15;;;;;;;;;16.50;16.00;;;;;21.33;46.79;101142.22;110465;1258;18883;-56
2022/04/15 08:35:43;;;;;;;;;21.00;18.33;;;;;21.35;46.49;101149.40;110559;1258;19400;-56
2022/04/15 08:38:11;;;;;;;;;20.00;17.33;;;;;21.32;46.76;101146.83;110613;1258;18720;-58
2022/04/15 08:40:39;;;;;;;;;16.33;16.00;;;;;21.23;47.34;101146.31;110592;1258;22803;-54
2022/04/15 08:43:06;;;;;;;;;21.00;16.00;;;;;21.18;47.71;101154.56;110639;1258;19715;-59
2022/04/15 08:45:33;;;;;;;;;17.33;16.33;;;;;21.19;47.65;101151.52;110607;1258;18864;-57
2022/04/15 08:48:01;;;;;;;;;16.67;16.00;;;;;21.19;47.61;101158.48;110651;1258;21901;-55
2022/04/15 08:50:28;;;;;;;;;14.00;12.50;;;;;21.12;47.93;101159.57;110615;1258;19544;-56
2022/04/15 08:52:55;;;;;;;;;18.00;17.00;;;;;21.16;48.11;101160.05;110727;1258;18757;-57
2022/04/15 08:55:23;;;;;;;;;18.00;17.00;;;;;21.18;47.83;101160.70;110724;1258;18808;-57
2022/04/15 08:57:50;;;;;;;;;17.33;17.33;;;;;21.19;47.84;101157.69;110775;1258;19518;-57
2022/04/15 09:00:18;;;;;;;;;27.00;23.33;;;;;21.25;47.47;101155.58;110644;1258;18765;-57
2022/04/15 09:02:45;;;;;;;;;107.33;80.00;;;;;21.32;47.56;101155.03;110403;1260;22901;-57
2022/04/15 09:05:12;;;;;;;;;110.67;87.33;;;;;21.36;47.61;101154.75;110564;1258;20960;-55
2022/04/15 09:07:40;;;;;;;;;102.00;74.50;;;;;21.43;47.50;101154.11;110641;1259;19086;-56
2022/04/15 09:10:10;;;;;;;;;180.67;135.00;;;;;21.46;47.16;101154.90;110698;1258;19694;-57
2022/04/15 09:12:38;;;;;;;;;151.75;103.25;;;;;21.51;47.26;101158.04;110689;1258;22923;-56
2022/04/15 09:15:05;;;;;;;;;142.00;110.67;;;;;21.54;47.38;101155.84;110563;1258;19053;-56
2022/04/15 09:17:33;;;;;;;;;118.75;93.50;;;;;21.59;48.02;101153.31;110598;1258;23336;-55
2022/04/15 09:20:00;;;;;;;;;107.00;87.00;;;;;21.63;48.18;101156.10;110718;1258;19695;-56
2022/04/15 09:22:27;;;;;;;;;105.00;83.00;;;;;21.66;48.46;101156.85;110604;1258;19206;-56
2022/04/15 09:24:55;;;;;;;;;103.33;82.33;;;;;21.65;48.42;101156.96;110709;1258;18915;-58
2022/04/15 09:27:23;;;;;;;;;100.67;73.67;;;;;21.65;48.64;101157.19;110740;1258;19465;-57
2022/04/15 09:29:51;;;;;;;;;90.33;68.00;;;;;21.64;48.65;101157.23;110661;1258;21233;-56
2022/04/15 09:32:18;;;;;;;;;95.33;67.00;;;;;21.68;48.58;101160.25;110633;1258;20533;-55
2022/04/15 09:34:45;;;;;;;;;91.50;63.50;;;;;21.69;48.69;101161.39;110565;1256;19553;-58
2022/04/15 09:37:13;;;;;;;;;85.67;60.33;;;;;21.68;49.28;101161.96;110667;1258;18869;-58
2022/04/15 09:39:41;;;;;;;;;76.67;57.00;;;;;21.66;49.51;101165.92;110750;1258;19049;-54
2022/04/15 09:42:09;;;;;;;;;81.50;60.00;;;;;21.69;49.78;101166.15;110707;1259;22822;-55
2022/04/15 09:44:36;;;;;;;;;79.00;57.67;;;;;21.68;50.50;101167.38;110670;1258;21193;-54
2022/04/15 09:47:03;;;;;;;;;72.00;54.00;;;;;21.64;50.65;101160.40;110691;1258;18859;-58
2022/04/15 09:49:32;;;;;;;;;64.33;51.33;;;;;21.57;50.56;101156.39;110746;1258;21329;-57
2022/04/15 09:52:00;;;;;;;;;60.50;46.00;;;;;21.53;50.28;101157.95;110745;1258;19148;-58
2022/04/15 09:54:27;;;;;;;;;59.33;47.67;;;;;21.52;49.84;101158.61;110694;1258;18875;-54
2022/04/15 09:56:55;;;;;;;;;55.33;48.00;;;;;21.55;49.37;101157.10;110568;1259;19677;-54
2022/04/15 09:59:23;;;;;;;;;55.33;42.67;;;;;21.59;48.97;101159.09;110721;1258;18918;-58
2022/04/15 10:01:50;;;;;;;;;51.67;42.00;;;;;21.61;49.12;101154.70;110697;1258;18902;-57
2022/04/15 10:04:17;;;;;;;;;57.33;41.67;;;;;21.63;49.16;101159.77;110703;1258;22248;-56
2022/04/15 10:06:45;;;;;;;;;49.33;39.67;;;;;21.57;49.32;101160.23;110785;1258;18713;-53
2022/04/15 10:09:12;;;;;;;;;43.67;37.00;;;;;21.55;48.94;101156.94;110741;1258;18895;-52
2022/04/15 10:11:40;;;;;;;;;41.00;37.00;;;;;21.49;49.03;101159.44;110685;1258;22242;-57
2022/04/15 10:14:07;;;;;;;;;42.33;33.33;;;;;21.44;48.95;101155.51;110715;1258;22592;-54
2022/04/15 10:16:35;;;;;;;;;42.33;35.33;;;;;21.40;48.89;101160.11;110646;1258;18914;-57
2022/04/15 10:19:02;;;;;;;;;30.50;30.50;;;;;21.36;48.72;101162.06;110758;1258;22822;-57
2022/04/15 10:21:30;;;;;;;;;32.00;28.33;;;;;21.31;48.76;101161.02;110726;1258;18732;-55
2022/04/15 10:23:57;;;;;;;;;42.33;34.67;;;;;21.28;48.50;101162.84;110733;1259;18990;-57
2022/04/15 10:26:25;;;;;;;;;33.00;28.33;;;;;21.27;48.55;101161.91;110662;1258;19942;-56
2022/04/15 10:28:53;;;;;;;;;34.00;25.00;;;;;21.26;48.44;101163.15;110569;1258;22919;-53
2022/04/15 10:31:21;;;;;;;;;36.33;29.67;;;;;21.22;48.33;101166.52;110676;1258;22188;-56
2022/04/15 10:33:50;;;;;;;;;25.33;24.00;;;;;21.20;48.34;101164.34;110742;1258;19535;-57
2022/04/15 10:36:17;;;;;;;;;28.00;24.67;;;;;21.20;48.24;101161.10;110596;1258;18754;-55
2022/04/15 10:38:44;;;;;;;;;33.00;30.00;;;;;21.19;48.14;101158.82;110726;1258;19126;-56
2022/04/15 10:41:12;;;;;;;;;30.50;26.00;;;;;21.18;47.99;101162.64;110659;1258;19544;-57
2022/04/15 10:43:39;;;;;;;;;31.00;29.00;;;;;21.16;48.17;101161.29;110681;1258;18756;-54
2022/04/15 10:46:06;;;;;;;;;25.67;24.33;;;;;21.15;48.00;101160.30;110677;1258;19013;-56
2022/04/15 10:48:34;;;;;;;;;30.00;25.50;;;;;21.15;47.97;101160.00;110711;1258;22124;-54
2022/04/15 10:51:01;;;;;;;;;29.00;25.50;;;;;21.14;47.86;101156.42;110660;1258;18752;-59
2022/04/15 10:53:29;;;;;;;;;25.33;21.00;;;;;21.10;48.24;101158.88;110566;1258;18858;-56
2022/04/15 10:55:56;;;;;;;;;29.00;26.00;;;;;21.09;48.36;101155.33;110743;1258;22847;-57
2022/04/15 10:58:24;;;;;;;;;26.00;24.33;;;;;21.09;48.32;101158.60;110750;1258;22956;-59
2022/04/15 11:03:48;;;;;;;;;29.00;27.67;;;;;21.10;48.89;101160.89;110074;1264;19475;-55
2022/04/15 11:06:16;;;;;;;;;27.67;25.00;;;;;21.07;49.06;101159.80;110141;1264;22572;-56